createdAt,value
2023-01-23T00:01:02.977Z,9.77
2023-01-23T00:03:29.425Z,9.35
2023-01-23T00:06:09.264Z,10.00
2023-01-23T00:08:35.796Z,10.30
2023-01-23T00:11:12.074Z,10.55
2023-01-23T00:13:38.561Z,9.48
2023-01-23T00:16:08.887Z,10.25
2023-01-23T00:18:35.483Z,9.52
2023-01-23T00:21:05.811Z,10.85
2023-01-23T00:23:32.453Z,10.35
2023-01-23T00:26:09.000Z,10.25
2023-01-23T00:28:35.451Z,10.90
2023-01-23T00:31:02.652Z,10.77
2023-01-23T00:33:29.108Z,10.30
2023-01-23T00:36:00.578Z,11.40
2023-01-23T00:38:27.455Z,10.48
2023-01-23T00:40:58.816Z,10.52
2023-01-23T00:43:25.420Z,10.90
2023-01-23T00:45:51.986Z,10.50
2023-01-23T00:48:19.289Z,10.20
2023-01-23T00:51:04.954Z,10.45
2023-01-23T00:53:44.578Z,10.35
2023-01-23T00:58:48.738Z,9.70
2023-01-23T01:01:27.698Z,9.90
2023-01-23T01:04:02.864Z,10.70
2023-01-23T01:06:40.461Z,10.88
2023-01-23T01:09:07.111Z,10.45
2023-01-23T01:11:33.624Z,10.52
2023-01-23T01:14:01.360Z,9.90
2023-01-23T01:16:27.812Z,10.20
2023-01-23T01:18:54.676Z,10.50
2023-01-23T01:21:21.222Z,10.52
2023-01-23T01:23:47.594Z,10.75
2023-01-23T01:26:13.985Z,10.32
2023-01-23T01:28:42.103Z,9.93
2023-01-23T01:31:10.395Z,10.40
2023-01-23T01:33:37.706Z,10.25
2023-01-23T01:36:07.539Z,10.20
2023-01-23T01:38:33.897Z,11.15
2023-01-23T01:41:00.280Z,10.93
2023-01-23T01:43:27.639Z,10.27
2023-01-23T01:46:12.970Z,10.05
2023-01-23T01:48:58.044Z,10.68
2023-01-23T01:51:30.937Z,10.20
2023-01-23T01:54:09.212Z,9.55
2023-01-23T01:56:41.998Z,11.00
2023-01-23T01:59:09.683Z,10.45
2023-01-23T02:01:36.045Z,10.75
2023-01-23T02:04:02.909Z,9.57
2023-01-23T02:06:29.830Z,11.05
2023-01-23T02:08:59.392Z,10.88
2023-01-23T02:11:25.862Z,10.38
2023-01-23T02:13:55.302Z,10.05
2023-01-23T02:16:23.948Z,10.27
2023-01-23T02:18:53.831Z,10.27
2023-01-23T02:21:23.189Z,9.93
2023-01-23T02:23:54.235Z,10.80
2023-01-23T02:26:23.381Z,11.57
2023-01-23T02:28:51.677Z,10.57
2023-01-23T02:31:18.167Z,11.45
2023-01-23T02:33:52.352Z,11.07
2023-01-23T02:36:20.693Z,10.07
2023-01-23T02:38:54.723Z,9.82
2023-01-23T02:41:25.860Z,10.85
2023-01-23T02:43:53.337Z,10.70
2023-01-23T02:46:20.753Z,11.00
2023-01-23T02:48:47.590Z,10.68
2023-01-23T02:51:14.000Z,10.57
2023-01-23T02:53:42.513Z,11.73
2023-01-23T02:56:08.979Z,11.48
2023-01-23T02:58:53.961Z,11.15
2023-01-23T03:01:20.414Z,11.45
2023-01-23T03:03:46.895Z,11.63
2023-01-23T03:06:13.349Z,10.80
2023-01-23T03:08:47.456Z,11.65
2023-01-23T03:11:14.836Z,11.40
2023-01-23T03:13:41.220Z,11.68
2023-01-23T03:16:07.778Z,12.63
2023-01-23T03:18:39.992Z,12.18
2023-01-23T03:21:12.500Z,11.57
2023-01-23T03:23:44.699Z,11.98
2023-01-23T03:26:11.692Z,12.13
2023-01-23T03:28:56.806Z,11.02
2023-01-23T03:31:23.255Z,10.95
2023-01-23T03:33:49.668Z,12.20
2023-01-23T03:36:16.054Z,10.85
2023-01-23T03:39:05.401Z,11.80
2023-01-23T03:41:31.734Z,12.35
2023-01-23T03:43:58.064Z,11.32
2023-01-23T03:46:24.656Z,12.63
2023-01-23T03:48:51.297Z,11.77
2023-01-23T03:51:17.679Z,11.48
2023-01-23T03:53:44.062Z,11.10
2023-01-23T03:56:10.697Z,11.57
2023-01-23T03:58:37.059Z,11.35
2023-01-23T04:01:07.637Z,10.73
2023-01-23T04:03:34.099Z,12.02
2023-01-23T04:06:00.552Z,11.80
2023-01-23T04:08:26.969Z,11.55
2023-01-23T04:11:00.988Z,10.80
2023-01-23T04:13:27.308Z,11.77
2023-01-23T04:15:53.723Z,10.98
2023-01-23T04:18:20.165Z,11.60
2023-01-23T04:20:46.460Z,10.68
2023-01-23T04:23:12.830Z,11.27
2023-01-23T04:25:39.228Z,10.73
2023-01-23T04:28:05.610Z,11.57
2023-01-23T04:30:32.067Z,12.00
2023-01-23T04:32:58.453Z,11.70
2023-01-23T04:35:24.794Z,11.65
2023-01-23T04:37:51.174Z,11.77
2023-01-23T04:40:17.749Z,12.40
2023-01-23T04:42:44.410Z,12.48
2023-01-23T04:45:11.382Z,12.25
2023-01-23T04:47:37.768Z,13.02
2023-01-23T04:50:04.396Z,11.18
2023-01-23T04:52:31.035Z,11.73
2023-01-23T04:54:57.802Z,11.68
2023-01-23T04:57:27.269Z,10.77
2023-01-23T04:59:53.633Z,12.60
2023-01-23T05:02:20.047Z,12.02
2023-01-23T05:04:46.702Z,12.77
2023-01-23T05:07:13.316Z,11.73
2023-01-23T05:09:39.696Z,11.93
2023-01-23T05:12:06.126Z,11.88
2023-01-23T05:14:32.766Z,12.45
2023-01-23T05:16:59.070Z,10.77
2023-01-23T05:19:25.402Z,11.88
2023-01-23T05:21:51.736Z,12.45
2023-01-23T05:24:18.160Z,11.55
2023-01-23T05:26:44.447Z,12.40
2023-01-23T05:29:10.780Z,11.27
2023-01-23T05:31:37.210Z,12.07
2023-01-23T05:34:03.720Z,11.95
2023-01-23T05:36:30.032Z,12.93
2023-01-23T05:38:57.161Z,12.02
2023-01-23T05:41:25.550Z,11.93
2023-01-23T05:43:52.067Z,11.77
2023-01-23T05:46:18.455Z,12.60
2023-01-23T05:48:44.891Z,11.68
2023-01-23T05:51:11.363Z,12.20
2023-01-23T05:53:37.796Z,11.32
2023-01-23T05:56:16.195Z,11.90
2023-01-23T06:01:11.272Z,11.57
2023-01-23T06:03:37.760Z,11.13
2023-01-23T06:06:04.173Z,12.50
2023-01-23T06:08:30.645Z,12.32
2023-01-23T06:11:02.753Z,12.45
2023-01-23T06:13:32.616Z,12.23
2023-01-23T06:15:59.789Z,12.70
2023-01-23T06:18:26.129Z,13.27
2023-01-23T06:20:59.453Z,11.98
2023-01-23T06:23:26.300Z,12.10
2023-01-23T06:25:52.787Z,12.85
2023-01-23T06:28:19.215Z,12.88
2023-01-23T06:30:45.676Z,13.20
2023-01-23T06:33:12.071Z,12.40
2023-01-23T06:35:38.550Z,14.00
2023-01-23T06:38:04.889Z,12.05
2023-01-23T06:40:31.379Z,12.77
2023-01-23T06:42:57.724Z,12.23
2023-01-23T06:45:24.046Z,13.23
2023-01-23T06:47:51.883Z,12.38
2023-01-23T06:50:18.563Z,12.85
2023-01-23T06:52:45.124Z,12.32
2023-01-23T06:55:13.211Z,12.85
2023-01-23T06:57:40.939Z,12.38
2023-01-23T07:00:07.868Z,13.73
2023-01-23T07:02:34.399Z,13.05
2023-01-23T07:05:00.811Z,13.38
2023-01-23T07:07:29.170Z,14.00
2023-01-23T07:09:55.657Z,13.07
2023-01-23T07:12:22.179Z,14.23
2023-01-23T07:14:48.585Z,13.32
2023-01-23T07:17:15.083Z,13.23
2023-01-23T07:19:41.466Z,13.55
2023-01-23T07:22:07.818Z,13.70
2023-01-23T07:24:34.208Z,13.18
2023-01-23T07:27:00.578Z,13.95
2023-01-23T07:29:27.075Z,13.02
2023-01-23T07:31:54.351Z,13.35
2023-01-23T07:34:20.786Z,14.07
2023-01-23T07:36:47.092Z,13.18
2023-01-23T07:39:13.446Z,14.45
2023-01-23T07:41:43.844Z,14.30
2023-01-23T07:44:16.963Z,14.52
2023-01-23T07:46:46.748Z,14.32
2023-01-23T07:49:13.421Z,14.37
2023-01-23T07:51:40.248Z,14.90
2023-01-23T07:54:06.797Z,14.30
2023-01-23T07:56:33.356Z,15.05
2023-01-23T07:59:00.496Z,15.32
2023-01-23T08:01:26.862Z,13.75
2023-01-23T08:03:53.569Z,13.50
2023-01-23T08:06:20.125Z,14.65
2023-01-23T08:08:49.826Z,14.52
2023-01-23T08:11:16.267Z,15.55
2023-01-23T08:13:42.824Z,15.02
2023-01-23T08:16:10.873Z,15.07
2023-01-23T08:18:38.446Z,14.95
2023-01-23T08:21:05.403Z,14.88
2023-01-23T08:23:32.972Z,16.10
2023-01-23T08:26:01.104Z,15.60
2023-01-23T08:28:27.861Z,15.80
2023-01-23T08:30:54.773Z,14.43
2023-01-23T08:33:21.615Z,15.02
2023-01-23T08:35:48.954Z,15.77
2023-01-23T08:38:15.539Z,14.63
2023-01-23T08:40:41.973Z,14.32
2023-01-23T08:43:10.606Z,14.80
2023-01-23T08:45:37.369Z,14.93
2023-01-23T08:48:03.946Z,14.00
2023-01-23T08:50:32.996Z,14.35
2023-01-23T08:52:59.575Z,13.52
2023-01-23T08:55:28.438Z,14.85
2023-01-23T08:57:54.913Z,14.13
2023-01-23T09:00:21.880Z,13.93
2023-01-23T09:02:48.450Z,15.20
2023-01-23T09:05:14.886Z,15.38
2023-01-23T09:07:41.346Z,14.68
2023-01-23T09:10:08.105Z,13.27
2023-01-23T09:12:34.693Z,15.68
2023-01-23T09:15:01.088Z,14.73
2023-01-23T09:17:27.670Z,14.80
2023-01-23T09:19:54.052Z,15.77
2023-01-23T09:22:40.511Z,14.48
2023-01-23T09:25:08.051Z,13.82
2023-01-23T09:27:34.540Z,13.23
2023-01-23T09:30:01.124Z,14.93
2023-01-23T09:32:27.447Z,14.05
2023-01-23T09:34:54.904Z,14.23
2023-01-23T09:37:21.269Z,13.68
2023-01-23T09:39:47.607Z,14.05
2023-01-23T09:42:18.017Z,14.23
2023-01-23T09:44:50.716Z,13.82
2023-01-23T09:47:19.938Z,15.13
2023-01-23T09:49:53.206Z,13.73
2023-01-23T09:52:21.399Z,14.25
2023-01-23T09:54:48.793Z,15.02
2023-01-23T09:57:45.778Z,13.98
2023-01-23T10:00:17.825Z,13.32
2023-01-23T10:02:45.061Z,12.45
2023-01-23T10:05:15.836Z,12.70
2023-01-23T10:08:00.984Z,13.90
2023-01-23T10:10:54.039Z,13.73
2023-01-23T10:13:41.479Z,13.23
2023-01-23T10:16:13.982Z,12.80
2023-01-23T10:18:44.462Z,12.82
2023-01-23T10:21:29.554Z,12.82
2023-01-23T10:24:13.794Z,12.93
2023-01-23T10:26:43.546Z,13.13
2023-01-23T10:29:29.894Z,13.10
2023-01-23T10:31:59.231Z,12.32
2023-01-23T10:34:34.885Z,13.55
2023-01-23T10:37:13.485Z,12.00
2023-01-23T10:40:00.349Z,12.60
2023-01-23T10:42:45.692Z,12.57
2023-01-23T10:45:17.853Z,11.00
2023-01-23T10:47:50.104Z,12.57
2023-01-23T10:50:34.353Z,11.20
2023-01-23T10:53:09.159Z,12.07
2023-01-23T10:55:35.609Z,12.25
2023-01-23T10:58:03.282Z,11.65
2023-01-23T11:00:29.693Z,11.48
2023-01-23T11:02:56.209Z,11.55
2023-01-23T11:05:33.679Z,11.25
2023-01-23T11:08:04.280Z,10.65
2023-01-23T11:10:30.674Z,11.10
2023-01-23T11:12:57.665Z,10.80
2023-01-23T11:15:29.755Z,11.80
2023-01-23T11:17:57.574Z,10.82
2023-01-23T11:20:26.360Z,11.95
2023-01-23T11:23:03.882Z,10.75
2023-01-23T11:25:31.747Z,11.95
2023-01-23T11:27:59.134Z,11.73
2023-01-23T11:30:30.000Z,11.25
2023-01-23T11:35:41.601Z,9.85
2023-01-23T11:38:11.235Z,10.88
2023-01-23T11:40:37.756Z,10.57
2023-01-23T11:43:09.714Z,11.80
2023-01-23T11:45:54.083Z,11.23
2023-01-23T11:48:20.777Z,11.05
2023-01-23T11:50:55.903Z,11.43
2023-01-23T11:53:42.870Z,10.88
2023-01-23T11:56:15.761Z,10.98
2023-01-23T11:59:12.721Z,11.57
2023-01-23T12:02:02.484Z,11.52
2023-01-23T12:04:29.246Z,11.03
2023-01-23T12:06:55.620Z,11.20
2023-01-23T12:09:28.522Z,10.45
2023-01-23T12:12:04.292Z,10.80
2023-01-23T12:14:47.245Z,10.50
2023-01-23T12:20:19.017Z,9.77
2023-01-23T12:22:50.693Z,9.52
2023-01-23T12:28:17.812Z,9.50
2023-01-23T12:30:59.712Z,9.93
2023-01-23T12:33:47.368Z,10.35
2023-01-23T12:36:34.136Z,10.15
2023-01-23T12:39:14.313Z,10.00
2023-01-23T12:41:43.369Z,10.38
2023-01-23T12:44:13.129Z,10.77
2023-01-23T12:46:43.402Z,10.25
2023-01-23T12:49:28.347Z,9.88
2023-01-23T12:52:01.091Z,9.95
2023-01-23T12:54:34.591Z,10.20
2023-01-23T12:57:02.124Z,9.77
2023-01-23T12:59:31.711Z,9.75
2023-01-23T13:02:04.370Z,10.18
2023-01-23T13:04:49.388Z,9.95
2023-01-23T13:07:19.020Z,9.65
2023-01-23T13:10:15.151Z,9.32
2023-01-23T13:12:41.718Z,9.90
2023-01-23T13:15:19.084Z,9.63
2023-01-23T13:17:59.776Z,8.05
2023-01-23T13:20:44.664Z,8.32
2023-01-23T13:23:26.164Z,8.68
2023-01-23T13:26:29.342Z,8.70
2023-01-23T13:28:57.378Z,8.90
2023-01-23T13:31:25.806Z,9.18
2023-01-23T13:33:55.325Z,9.40
2023-01-23T13:36:29.371Z,9.35
2023-01-23T13:39:14.678Z,8.73
2023-01-23T13:41:41.026Z,9.60
2023-01-23T13:44:10.529Z,8.65
2023-01-23T14:21:50.943Z,8.10
2023-01-23T14:27:11.626Z,7.60
2023-01-23T14:29:39.447Z,7.40
2023-01-23T14:32:06.161Z,8.55
2023-01-23T14:34:38.715Z,8.70
2023-01-23T14:37:07.046Z,8.82
2023-01-23T14:39:35.102Z,9.48
2023-01-23T14:42:02.689Z,8.40
2023-01-23T14:44:29.830Z,9.20
2023-01-23T14:46:58.524Z,8.93
2023-01-23T14:49:33.691Z,8.70
2023-01-23T14:52:01.658Z,9.57
2023-01-23T14:54:32.902Z,8.95
2023-01-23T14:57:01.517Z,9.85
2023-01-23T14:59:33.804Z,10.25
2023-01-23T15:02:05.365Z,9.52
2023-01-23T15:04:36.617Z,10.07
2023-01-23T15:07:02.919Z,9.52
2023-01-23T15:09:29.409Z,10.52
2023-01-23T15:11:57.032Z,9.00
2023-01-23T15:14:26.102Z,9.63
2023-01-23T15:16:59.131Z,9.95
2023-01-23T15:19:25.899Z,9.45
2023-01-23T15:22:04.406Z,9.32
2023-01-23T15:24:30.725Z,9.27
2023-01-23T15:26:58.425Z,9.70
2023-01-23T15:29:24.827Z,9.35
2023-01-23T15:31:51.929Z,9.93
2023-01-23T15:34:20.572Z,9.60
2023-01-23T15:36:47.007Z,9.35
2023-01-23T15:39:23.729Z,9.38
2023-01-23T15:41:51.862Z,8.77
2023-01-23T15:44:19.524Z,9.02
2023-01-23T15:46:46.253Z,8.98
2023-01-23T15:49:24.545Z,8.73
2023-01-23T15:52:32.298Z,9.98
2023-01-23T15:55:00.156Z,9.85
2023-01-23T15:57:26.690Z,9.52
2023-01-23T15:59:53.271Z,9.23
2023-01-23T16:02:30.671Z,9.55
2023-01-23T16:04:58.380Z,9.30
2023-01-23T16:07:38.624Z,9.95
2023-01-23T16:10:07.854Z,9.30
2023-01-23T16:12:38.718Z,9.75
2023-01-23T16:17:31.443Z,9.35
2023-01-23T16:19:57.752Z,9.35
2023-01-23T16:22:29.113Z,9.55
2023-01-23T16:24:56.751Z,10.73
2023-01-23T16:27:27.579Z,11.02
2023-01-23T16:29:55.240Z,11.23
2023-01-23T16:32:21.694Z,10.48
2023-01-23T16:34:48.730Z,10.25
2023-01-23T16:37:16.057Z,10.85
2023-01-23T16:39:43.077Z,10.68
2023-01-23T16:42:22.683Z,12.07
2023-01-23T16:44:49.494Z,12.43
2023-01-23T16:47:15.775Z,12.25
2023-01-23T16:49:57.257Z,11.57
2023-01-23T16:52:24.281Z,11.70
2023-01-23T16:54:51.707Z,11.95
2023-01-23T16:57:19.408Z,10.93
2023-01-23T16:59:45.977Z,12.15
2023-01-23T17:02:20.287Z,11.60
2023-01-23T17:04:46.709Z,12.35
2023-01-23T17:07:17.130Z,11.70
2023-01-23T17:09:44.203Z,11.65
2023-01-23T17:12:14.491Z,12.40
2023-01-23T17:14:42.108Z,11.93
2023-01-23T17:17:11.362Z,10.60
2023-01-23T17:19:41.679Z,11.40
2023-01-23T17:22:27.349Z,12.50
2023-01-23T17:24:53.802Z,11.65
2023-01-23T17:27:20.201Z,12.75
2023-01-23T17:29:46.645Z,12.35
2023-01-23T17:32:22.525Z,10.20
2023-01-23T17:34:50.459Z,10.38
2023-01-23T17:37:23.121Z,10.02
2023-01-23T17:39:49.606Z,10.90
2023-01-23T17:42:16.271Z,9.63
2023-01-23T17:44:42.834Z,11.27
2023-01-23T17:47:12.619Z,11.02
2023-01-23T17:49:46.482Z,10.98
2023-01-23T17:52:12.784Z,10.57
2023-01-23T17:54:39.205Z,11.15
2023-01-23T17:57:05.557Z,10.30
2023-01-23T17:59:31.944Z,11.70
2023-01-23T18:01:58.392Z,11.55
2023-01-23T18:04:24.713Z,11.77
2023-01-23T18:06:51.322Z,11.98
2023-01-23T18:09:23.611Z,11.18
2023-01-23T18:11:54.376Z,11.00
2023-01-23T18:14:28.488Z,10.75
2023-01-23T18:16:55.788Z,11.75
2023-01-23T18:19:24.855Z,11.13
2023-01-23T18:21:52.933Z,11.77
2023-01-23T18:24:32.799Z,12.00
2023-01-23T18:27:05.506Z,11.77
2023-01-23T18:29:41.354Z,12.57
2023-01-23T18:32:23.830Z,12.73
2023-01-23T18:34:58.980Z,10.77
2023-01-23T18:37:32.316Z,10.05
2023-01-23T18:40:18.400Z,10.73
2023-01-23T18:43:07.647Z,10.75
2023-01-23T18:45:34.156Z,10.20
2023-01-23T18:48:00.577Z,11.68
2023-01-23T18:50:27.152Z,10.80
2023-01-23T18:53:19.502Z,10.77
2023-01-23T18:55:51.937Z,10.40
2023-01-23T18:58:18.189Z,10.18
2023-01-23T19:00:48.569Z,10.23
2023-01-23T19:03:16.683Z,11.52
2023-01-23T19:05:43.709Z,11.55
2023-01-23T19:08:31.447Z,12.55
2023-01-23T19:11:00.311Z,12.30
2023-01-23T19:13:35.135Z,11.93
2023-01-23T19:16:01.494Z,12.40
2023-01-23T19:18:43.159Z,12.73
2023-01-23T19:21:09.438Z,11.43
2023-01-23T19:24:06.872Z,12.48
2023-01-23T19:26:34.759Z,11.50
2023-01-23T19:29:19.239Z,11.48
2023-01-23T19:32:03.024Z,12.23
2023-01-23T19:34:30.295Z,11.93
2023-01-23T19:36:56.658Z,12.73
2023-01-23T19:39:25.422Z,11.95
2023-01-23T19:41:53.297Z,13.10
2023-01-23T19:44:22.406Z,11.88
2023-01-23T19:46:51.268Z,12.23
2023-01-23T19:49:29.659Z,12.05
2023-01-23T19:51:56.138Z,12.13
2023-01-23T19:54:24.264Z,12.02
2023-01-23T19:56:51.211Z,11.95
2023-01-23T19:59:21.252Z,11.57
2023-01-23T20:01:52.876Z,12.07
2023-01-23T20:04:24.701Z,12.93
2023-01-23T20:06:58.142Z,12.00
2023-01-23T20:09:27.186Z,12.20
2023-01-23T20:12:15.928Z,11.35
2023-01-23T20:14:40.792Z,12.13
2023-01-23T20:17:07.193Z,12.18
2023-01-23T20:19:33.550Z,11.80
2023-01-23T20:21:59.862Z,13.07
2023-01-23T20:24:26.378Z,13.35
2023-01-23T20:26:52.750Z,12.75
2023-01-23T20:29:19.136Z,13.18
2023-01-23T20:31:45.588Z,11.90
2023-01-23T20:34:12.184Z,12.13
2023-01-23T20:36:38.540Z,12.82
2023-01-23T20:39:05.707Z,11.85
2023-01-23T20:41:32.042Z,12.70
2023-01-23T20:43:58.341Z,12.15
2023-01-23T20:46:26.804Z,13.82
2023-01-23T20:48:53.201Z,11.13
2023-01-23T20:51:19.702Z,11.48
2023-01-23T20:53:46.083Z,12.25
2023-01-23T20:56:18.927Z,12.50
2023-01-23T20:59:05.199Z,12.70
2023-01-23T21:01:53.273Z,12.82
2023-01-23T21:04:23.398Z,11.00
2023-01-23T21:06:49.681Z,12.63
2023-01-23T21:09:16.354Z,11.05
2023-01-23T21:11:42.746Z,10.65
2023-01-23T21:14:09.120Z,11.40
2023-01-23T21:16:35.778Z,10.95
2023-01-23T21:19:02.136Z,10.48
2023-01-23T21:21:28.438Z,11.10
2023-01-23T21:23:54.821Z,11.20
2023-01-23T21:26:22.346Z,11.13
2023-01-23T21:28:51.812Z,11.95
2023-01-23T21:31:20.204Z,11.27
2023-01-23T21:33:49.451Z,11.38
2023-01-23T21:36:18.060Z,10.77
2023-01-23T21:38:44.920Z,11.50
2023-01-23T21:41:11.228Z,10.80
2023-01-23T21:43:37.676Z,11.63
2023-01-23T21:46:04.134Z,11.10
2023-01-23T21:48:31.026Z,10.48
2023-01-23T21:51:10.765Z,11.25
2023-01-23T21:53:37.989Z,11.07
2023-01-23T21:56:05.297Z,10.45
2023-01-23T21:58:31.585Z,11.25
2023-01-23T22:01:20.643Z,10.88
2023-01-23T22:03:47.225Z,11.00
2023-01-23T22:06:13.796Z,10.48
2023-01-23T22:08:40.126Z,10.15
2023-01-23T22:11:07.293Z,10.80
2023-01-23T22:13:33.707Z,11.00
2023-01-23T22:16:02.417Z,9.88
2023-01-23T22:18:28.929Z,12.18
2023-01-23T22:20:56.128Z,11.27
2023-01-23T22:23:22.698Z,10.60
2023-01-23T22:25:49.883Z,10.70
2023-01-23T22:28:16.543Z,10.43
2023-01-23T22:30:42.946Z,10.82
2023-01-23T22:33:09.392Z,10.18
2023-01-23T22:35:39.770Z,10.10
2023-01-23T22:38:07.064Z,11.07
2023-01-23T22:40:33.514Z,9.95
2023-01-23T22:43:00.288Z,10.65
2023-01-23T22:45:26.721Z,10.68
2023-01-23T22:47:53.144Z,10.60
2023-01-23T22:50:19.695Z,11.13
2023-01-23T22:52:46.478Z,11.63
2023-01-23T22:55:12.967Z,10.07
2023-01-23T22:57:39.356Z,11.30
2023-01-23T23:00:10.662Z,10.95
2023-01-23T23:02:38.421Z,10.38
2023-01-23T23:05:06.133Z,10.35
2023-01-23T23:07:33.257Z,11.43
2023-01-23T23:09:59.557Z,10.40
2023-01-23T23:12:29.006Z,9.85
2023-01-23T23:14:55.336Z,9.88
2023-01-23T23:17:21.773Z,10.07
2023-01-23T23:19:48.155Z,9.50
2023-01-23T23:22:14.515Z,9.95
2023-01-23T23:24:40.955Z,10.05
2023-01-23T23:27:07.315Z,9.70
2023-01-23T23:29:33.803Z,10.05
2023-01-23T23:32:00.244Z,10.30
2023-01-23T23:34:27.763Z,10.82
2023-01-23T23:36:54.179Z,10.43
2023-01-23T23:39:20.491Z,10.45
2023-01-23T23:41:46.924Z,9.60
2023-01-23T23:44:13.511Z,10.57
2023-01-23T23:46:39.907Z,9.68
2023-01-23T23:49:06.278Z,9.88
2023-01-23T23:51:35.637Z,10.35
2023-01-23T23:54:01.952Z,9.55
2023-01-23T23:56:28.942Z,9.02
2023-01-23T23:58:55.833Z,9.05
